createdAt,value
2019-04-16T00:05:08.430Z,7.40
2019-04-16T00:10:39.326Z,7.60
2019-04-16T00:15:44.517Z,7.70
2019-04-16T00:20:59.983Z,7.77
2019-04-16T00:26:07.314Z,8.00
2019-04-16T00:31:12.470Z,8.37
2019-04-16T00:36:18.872Z,8.60
2019-04-16T00:41:24.310Z,8.33
2019-04-16T00:46:29.561Z,9.00
2019-04-16T00:51:34.770Z,8.60
2019-04-16T00:56:40.321Z,8.73
2019-04-16T01:01:45.543Z,8.43
2019-04-16T01:06:50.723Z,9.20
2019-04-16T01:11:55.886Z,8.67
2019-04-16T01:17:05.099Z,7.87
2019-04-16T01:22:08.986Z,8.53
2019-04-16T01:27:14.152Z,8.70
2019-04-16T01:32:44.245Z,8.03
2019-04-16T01:38:07.282Z,8.37
2019-04-16T01:43:12.680Z,8.23
2019-04-16T01:48:18.833Z,8.37
2019-04-16T01:53:23.980Z,8.90
2019-04-16T01:58:33.580Z,8.37
2019-04-16T02:03:35.916Z,8.20
2019-04-16T02:08:41.178Z,8.50
2019-04-16T02:13:46.973Z,8.73
2019-04-16T02:18:52.182Z,8.90
2019-04-16T02:23:58.325Z,8.97
2019-04-16T02:29:03.472Z,9.00
2019-04-16T02:34:08.956Z,9.10
2019-04-16T02:39:14.407Z,9.40
2019-04-16T02:44:19.603Z,8.83
2019-04-16T02:49:25.371Z,9.67
2019-04-16T02:55:07.798Z,9.30
2019-04-16T03:00:20.874Z,9.17
2019-04-16T03:05:32.208Z,9.53
2019-04-16T03:10:37.613Z,10.03
2019-04-16T03:16:06.301Z,9.10
2019-04-16T03:21:10.555Z,9.37
2019-04-16T03:26:17.870Z,9.13
2019-04-16T03:31:23.715Z,10.03
2019-04-16T03:36:30.217Z,9.13
2019-04-16T03:41:35.527Z,8.93
2019-04-16T03:46:46.014Z,8.37
2019-04-16T03:51:48.668Z,9.03
2019-04-16T03:56:54.165Z,9.50
2019-04-16T04:01:59.716Z,8.57
2019-04-16T04:07:05.514Z,9.40
2019-04-16T04:12:13.024Z,9.30
2019-04-16T04:17:17.973Z,10.40
2019-04-16T04:22:25.799Z,9.37
2019-04-16T04:27:30.652Z,8.87
2019-04-16T04:32:36.278Z,9.47
2019-04-16T04:37:42.288Z,9.47
2019-04-16T04:42:47.492Z,10.30
2019-04-16T04:47:53.178Z,9.80
2019-04-16T04:52:58.354Z,9.70
2019-04-16T04:58:03.575Z,10.47
2019-04-16T05:03:12.401Z,10.13
2019-04-16T05:08:18.796Z,10.10
2019-04-16T05:13:25.255Z,9.50
2019-04-16T05:18:31.044Z,9.87
2019-04-16T05:23:37.712Z,9.63
2019-04-16T05:28:45.440Z,10.30
2019-04-16T05:33:50.828Z,9.67
2019-04-16T05:38:56.404Z,10.90
2019-04-16T05:44:02.485Z,10.57
2019-04-16T05:49:09.288Z,10.80
2019-04-16T05:54:31.352Z,11.40
2019-04-16T05:59:36.604Z,10.10
2019-04-16T06:04:41.773Z,10.90
2019-04-16T06:09:46.947Z,13.13
2019-04-16T06:15:00.986Z,12.53
2019-04-16T06:20:21.744Z,12.87
2019-04-16T06:25:34.354Z,13.07
2019-04-16T06:30:47.136Z,13.93
2019-04-16T06:36:10.456Z,13.20
2019-04-16T06:41:41.467Z,12.57
2019-04-16T06:47:10.624Z,11.87
2019-04-16T06:52:42.867Z,12.30
2019-04-16T06:58:27.917Z,12.33
2019-04-16T07:03:58.287Z,10.67
2019-04-16T07:09:26.462Z,11.77
2019-04-16T07:14:32.059Z,13.40
2019-04-16T07:19:39.452Z,12.30
2019-04-16T07:24:44.438Z,11.57
2019-04-16T07:29:53.634Z,12.43
2019-04-16T07:35:27.278Z,13.17
2019-04-16T07:41:01.149Z,12.43
2019-04-16T07:46:24.082Z,12.70
2019-04-16T07:51:53.992Z,10.10
2019-04-16T07:56:59.084Z,10.23
2019-04-16T08:02:04.570Z,10.30
2019-04-16T08:07:11.770Z,10.47
2019-04-16T08:12:29.812Z,11.30
2019-04-16T08:17:24.176Z,10.45
2019-04-16T08:22:29.509Z,10.53
2019-04-16T08:27:34.803Z,10.28
2019-04-16T08:32:39.982Z,10.72
2019-04-16T08:37:49.268Z,10.50
2019-04-16T08:42:57.004Z,10.82
2019-04-16T08:47:59.044Z,10.63
2019-04-16T08:53:04.220Z,10.70
2019-04-16T08:58:12.668Z,10.45
2019-04-16T09:03:17.414Z,10.20
2019-04-16T09:08:34.529Z,9.95
2019-04-16T09:13:48.217Z,10.40
2019-04-16T09:19:04.289Z,10.35
2019-04-16T09:24:27.422Z,10.90
2019-04-16T09:29:51.938Z,10.38
2019-04-16T09:35:19.881Z,11.20
2019-04-16T09:40:40.197Z,11.20
2019-04-16T09:45:45.525Z,11.15
2019-04-16T09:50:50.820Z,11.30
2019-04-16T09:55:56.092Z,11.78
2019-04-16T10:01:07.222Z,11.00
2019-04-16T10:06:12.497Z,11.68
2019-04-16T10:11:18.988Z,11.63
2019-04-16T10:16:26.385Z,11.43
2019-04-16T10:21:31.635Z,11.20
2019-04-16T10:26:36.952Z,12.10
2019-04-16T10:31:42.384Z,11.78
2019-04-16T10:36:47.985Z,12.55
2019-04-16T10:42:04.349Z,11.18
2019-04-16T10:47:31.548Z,11.30
2019-04-16T10:53:07.840Z,10.98
2019-04-16T10:58:32.071Z,11.25
2019-04-16T11:03:48.371Z,11.55
2019-04-16T11:08:53.887Z,11.78
2019-04-16T11:14:00.553Z,11.88
2019-04-16T11:19:06.183Z,11.90
2019-04-16T11:24:11.589Z,12.70
2019-04-16T11:29:17.456Z,12.85
2019-04-16T11:34:23.414Z,12.10
2019-04-16T11:39:28.718Z,13.08
2019-04-16T11:44:34.084Z,13.18
2019-04-16T11:49:40.783Z,13.15
2019-04-16T11:54:47.015Z,13.53
2019-04-16T12:00:06.060Z,13.65
2019-04-16T12:05:09.436Z,12.63
2019-04-16T12:10:26.417Z,12.73
2019-04-16T12:15:49.281Z,12.60
2019-04-16T12:20:58.921Z,12.75
2019-04-16T12:26:29.970Z,12.88
2019-04-16T12:32:09.416Z,13.30
2019-04-16T12:37:40.356Z,12.98
2019-04-16T12:42:56.257Z,13.55
2019-04-16T12:48:22.836Z,13.50
2019-04-16T12:53:56.084Z,13.55
2019-04-16T12:59:14.433Z,13.65
2019-04-16T13:04:45.709Z,14.23
2019-04-16T13:10:10.048Z,13.20
2019-04-16T13:15:37.805Z,13.35
2019-04-16T13:21:03.831Z,13.08
2019-04-16T13:26:18.656Z,13.22
2019-04-16T13:31:24.258Z,13.05
2019-04-16T13:36:29.547Z,14.07
2019-04-16T13:41:35.195Z,13.58
2019-04-16T13:46:40.496Z,12.88
2019-04-16T13:51:47.801Z,11.65
2019-04-16T13:57:09.582Z,12.28
2019-04-16T14:02:32.739Z,12.28
2019-04-16T14:07:39.080Z,13.00
2019-04-16T14:12:44.351Z,12.98
2019-04-16T14:17:52.739Z,13.62
2019-04-16T14:22:57.771Z,13.30
2019-04-16T14:28:03.727Z,13.75
2019-04-16T14:33:10.910Z,13.08
2019-04-16T14:38:19.489Z,13.78
2019-04-16T14:43:30.231Z,13.90
2019-04-16T14:48:39.067Z,13.10
2019-04-16T14:53:51.850Z,13.60
2019-04-16T14:59:33.568Z,13.43
2019-04-16T15:04:36.053Z,13.18
2019-04-16T15:09:45.922Z,13.50
2019-04-16T15:15:01.706Z,12.88
2019-04-16T15:20:20.145Z,14.20
2019-04-16T15:25:36.277Z,13.55
2019-04-16T15:30:51.695Z,13.43
2019-04-16T15:36:00.699Z,13.18
2019-04-16T15:41:22.282Z,12.98
2019-04-16T15:46:45.484Z,12.18
2019-04-16T15:52:09.813Z,13.55
2019-04-16T15:57:34.029Z,13.05
2019-04-16T16:03:01.556Z,13.98
2019-04-16T16:08:35.344Z,12.78
2019-04-16T16:13:37.873Z,12.55
2019-04-16T16:18:43.137Z,13.20
2019-04-16T16:23:48.423Z,12.98
2019-04-16T16:28:54.498Z,12.23
2019-04-16T16:34:00.305Z,12.73
2019-04-16T16:39:07.601Z,14.38
2019-04-16T16:44:14.502Z,14.30
2019-04-16T16:49:20.071Z,14.58
2019-04-16T16:54:26.830Z,13.25
2019-04-16T16:59:37.778Z,12.35
2019-04-16T17:04:46.537Z,12.90
2019-04-16T17:09:52.274Z,12.75
2019-04-16T17:14:57.747Z,12.30
2019-04-16T17:20:04.659Z,12.55
2019-04-16T17:25:12.007Z,11.88
2019-04-16T17:30:17.624Z,12.15
2019-04-16T17:35:22.894Z,13.18
2019-04-16T17:40:46.580Z,12.88
2019-04-16T17:46:02.713Z,12.50
2019-04-16T17:51:27.453Z,12.60
2019-04-16T17:56:54.478Z,12.55
2019-04-16T18:02:20.922Z,12.88
2019-04-16T18:07:58.692Z,12.45
2019-04-16T18:13:17.096Z,11.97
2019-04-16T18:18:36.595Z,12.73
2019-04-16T18:23:51.070Z,11.78
2019-04-16T18:29:05.000Z,12.53
2019-04-16T18:34:40.243Z,11.50
2019-04-16T18:39:52.859Z,11.53
2019-04-16T18:45:15.343Z,9.98
2019-04-16T18:50:28.162Z,10.32
2019-04-16T18:55:34.685Z,10.82
2019-04-16T19:00:44.309Z,11.15
2019-04-16T19:05:50.569Z,11.73
2019-04-16T19:10:55.883Z,11.28
2019-04-16T19:16:01.820Z,10.65
2019-04-16T19:21:07.135Z,10.30
2019-04-16T19:26:12.409Z,11.15
2019-04-16T19:31:22.737Z,10.00
2019-04-16T19:36:27.504Z,9.68
2019-04-16T19:41:32.978Z,9.95
2019-04-16T19:46:38.341Z,9.68
2019-04-16T19:51:44.691Z,9.80
2019-04-16T19:56:51.424Z,10.68
2019-04-16T20:02:00.201Z,11.08
2019-04-16T20:07:04.063Z,10.20
2019-04-16T20:12:09.637Z,11.18
2019-04-16T20:17:14.960Z,10.45
2019-04-16T20:22:20.280Z,10.93
2019-04-16T20:27:25.869Z,11.00
2019-04-16T20:32:34.390Z,10.48
2019-04-16T20:37:39.112Z,10.88
2019-04-16T20:42:44.395Z,10.90
2019-04-16T20:47:50.782Z,10.83
2019-04-16T20:52:56.046Z,11.10
2019-04-16T20:58:01.687Z,11.12
2019-04-16T21:03:21.547Z,11.35
2019-04-16T21:08:17.127Z,11.30
2019-04-16T21:13:22.461Z,11.50
2019-04-16T21:18:28.336Z,12.10
2019-04-16T21:23:34.751Z,11.38
2019-04-16T21:28:50.483Z,11.40
2019-04-16T21:34:33.300Z,11.97
2019-04-16T21:39:47.176Z,11.73
2019-04-16T21:44:52.486Z,12.43
2019-04-16T21:49:58.208Z,12.35
2019-04-16T21:55:05.132Z,12.33
2019-04-16T22:00:21.875Z,11.63
2019-04-16T22:05:29.420Z,11.70
2019-04-16T22:10:35.801Z,11.35
2019-04-16T22:15:41.401Z,11.75
2019-04-16T22:20:47.664Z,11.63
2019-04-16T22:25:57.030Z,12.33
2019-04-16T22:31:01.135Z,11.75
2019-04-16T22:36:06.579Z,11.20
2019-04-16T22:41:30.833Z,12.13
2019-04-16T22:46:49.114Z,11.75
2019-04-16T22:51:55.085Z,12.03
2019-04-16T22:57:05.645Z,12.40
2019-04-16T23:02:20.648Z,13.00
2019-04-16T23:07:25.903Z,12.68
2019-04-16T23:12:32.223Z,12.40
2019-04-16T23:17:38.396Z,12.50
2019-04-16T23:22:46.485Z,12.53
2019-04-16T23:27:50.701Z,11.63
2019-04-16T23:32:59.042Z,11.33
2019-04-16T23:38:03.268Z,12.13
2019-04-16T23:43:39.715Z,11.83
2019-04-16T23:48:53.149Z,11.90
2019-04-16T23:54:12.025Z,12.00
2019-04-16T23:59:35.962Z,11.55
